Time;durP1;ratioP1;P1;durP2;ratioP2;P2;SDS_P1;SDS_P2;PMS_P1;PMS_P2;Temp;Humidity;BMP_temperature;BMP_pressure;BME280_temperature;BME280_humidity;BME280_pressure;Samples;Min_cycle;Max_cycle;Signal;HPM_P1;HPM_P2
2021/06/13 00:01:13;;;;;;;15.98;5.78;;;13.80;64.30;;;;;;5036592;28;20386;-79
2021/06/13 00:03:39;;;;;;;10.30;5.43;;;13.80;63.50;;;;;;5022634;28;20058;-79
2021/06/13 00:06:05;;;;;;;24.65;5.75;;;13.70;64.60;;;;;;5041665;28;20040;-79
2021/06/13 00:08:30;;;;;;;11.43;5.20;;;13.80;64.10;;;;;;5020573;28;20033;-79
2021/06/13 00:10:56;;;;;;;14.48;5.57;;;13.70;63.80;;;;;;5021903;28;20487;-79
2021/06/13 00:13:22;;;;;;;13.20;5.68;;;13.70;63.10;;;;;;5005872;28;20099;-79
2021/06/13 00:15:47;;;;;;;10.13;5.70;;;13.60;63.80;;;;;;5025347;28;20481;-79
2021/06/13 00:18:13;;;;;;;20.23;6.97;;;13.60;63.90;;;;;;5030033;28;20100;-78
2021/06/13 00:20:38;;;;;;;15.98;5.90;;;13.40;63.70;;;;;;5037135;28;20473;-79
2021/06/13 00:23:04;;;;;;;13.65;6.53;;;13.40;64.70;;;;;;5025099;28;20108;-80
2021/06/13 00:25:29;;;;;;;13.77;6.43;;;13.30;64.90;;;;;;5016518;28;20045;-80
2021/06/13 00:27:55;;;;;;;14.43;6.80;;;13.30;65.60;;;;;;5027278;28;20481;-79
2021/06/13 00:30:21;;;;;;;14.65;5.72;;;13.40;64.10;;;;;;5039435;28;20025;-79
2021/06/13 00:32:47;;;;;;;13.40;5.50;;;13.20;65.80;;;;;;5018525;28;20498;-79
2021/06/13 00:35:13;;;;;;;16.73;5.70;;;13.20;65.00;;;;;;5041185;28;20140;-79
2021/06/13 00:37:38;;;;;;;12.60;6.35;;;13.20;65.70;;;;;;5018593;28;20496;-79
2021/06/13 00:40:06;;;;;;;14.27;7.22;;;13.10;65.20;;;;;;5014820;28;20028;-79
2021/06/13 00:42:32;;;;;;;14.07;6.65;;;13.10;65.60;;;;;;5017952;28;20587;-79
2021/06/13 00:44:57;;;;;;;12.48;6.53;;;13.00;66.30;;;;;;5040084;28;20036;-79
2021/06/13 00:47:23;;;;;;;18.80;7.43;;;13.00;65.10;;;;;;5038444;28;20477;-79
2021/06/13 00:49:49;;;;;;;19.00;6.43;;;13.00;65.90;;;;;;5025818;28;20029;-79
2021/06/13 00:52:15;;;;;;;16.65;7.10;;;12.90;66.80;;;;;;5035284;28;20022;-80
2021/06/13 00:54:40;;;;;;;13.43;6.30;;;12.70;67.10;;;;;;5016531;28;20385;-80
2021/06/13 00:57:06;;;;;;;16.70;6.80;;;12.70;67.90;;;;;;5018117;28;20030;-80
2021/06/13 00:59:31;;;;;;;13.68;7.18;;;12.60;68.00;;;;;;5018314;28;20034;-80
2021/06/13 01:01:57;;;;;;;15.77;7.18;;;12.50;68.30;;;;;;5041106;28;20036;-79
2021/06/13 01:04:22;;;;;;;20.95;7.47;;;12.50;68.00;;;;;;5019522;28;20039;-80
2021/06/13 01:07:03;;;;;;;21.30;7.10;;;12.40;69.10;;;;;;5032485;28;20037;-80
2021/06/13 01:09:33;;;;;;;14.23;7.30;;;12.10;70.00;;;;;;5010180;28;20030;-80
2021/06/13 01:12:08;;;;;;;18.20;7.07;;;12.30;70.20;;;;;;5035201;28;20022;-80
2021/06/13 01:15:01;;;;;;;17.15;7.32;;;12.50;68.60;;;;;;5008978;28;20489;-79
2021/06/13 01:17:31;;;;;;;17.42;7.75;;;12.40;69.30;;;;;;5012873;28;20029;-79
2021/06/13 01:20:19;;;;;;;21.25;7.65;;;12.30;69.90;;;;;;5020258;28;20397;-79
2021/06/13 01:23:02;;;;;;;19.42;7.20;;;12.20;70.80;;;;;;5037258;28;20037;-80
2021/06/13 01:25:44;;;;;;;27.33;9.23;;;12.30;70.30;;;;;;5037354;28;20052;-79
2021/06/13 01:28:36;;;;;;;17.33;7.32;;;12.20;70.90;;;;;;5028986;28;20544;-80
2021/06/13 01:31:02;;;;;;;18.30;7.75;;;12.10;69.90;;;;;;5036004;28;20519;-80
2021/06/13 01:33:27;;;;;;;16.67;7.43;;;12.20;69.60;;;;;;5034406;28;20072;-80
2021/06/13 01:35:53;;;;;;;16.33;7.45;;;12.00;71.50;;;;;;5023517;28;20532;-80
2021/06/13 01:38:19;;;;;;;18.05;7.47;;;11.90;71.60;;;;;;5023603;28;20089;-79
2021/06/13 01:40:44;;;;;;;14.93;7.53;;;12.00;71.80;;;;;;5043067;28;20029;-79
2021/06/13 01:43:10;;;;;;;19.42;7.82;;;11.90;70.30;;;;;;5025805;28;20049;-80
2021/06/13 01:45:38;;;;;;;17.63;8.15;;;12.10;68.90;;;;;;5015783;28;20037;-80
2021/06/13 01:48:05;;;;;;;22.90;7.88;;;12.20;68.40;;;;;;5020724;28;20066;-80
2021/06/13 01:50:30;;;;;;;15.18;8.77;;;12.20;68.40;;;;;;5038564;28;20527;-79
2021/06/13 01:52:57;;;;;;;15.45;7.53;;;12.20;69.10;;;;;;5021807;28;20026;-79
2021/06/13 01:55:24;;;;;;;12.02;5.85;;;12.10;69.50;;;;;;5020765;28;20434;-79
2021/06/13 01:57:49;;;;;;;21.13;7.85;;;12.10;68.40;;;;;;5035727;28;20033;-79
2021/06/13 02:00:15;;;;;;;15.27;8.15;;;12.10;68.10;;;;;;5017827;28;20025;-79
2021/06/13 02:02:44;;;;;;;16.05;7.40;;;12.10;68.10;;;;;;5008395;28;20076;-79
2021/06/13 02:05:13;;;;;;;11.68;6.45;;;12.00;68.00;;;;;;5024167;28;20437;-79
2021/06/13 02:07:39;;;;;;;13.23;7.43;;;12.00;67.90;;;;;;5028756;28;20034;-80
2021/06/13 02:10:09;;;;;;;14.50;7.82;;;11.90;68.30;;;;;;5018597;28;20040;-79
2021/06/13 02:12:36;;;;;;;18.88;7.35;;;11.90;68.30;;;;;;5033565;28;20450;-79
2021/06/13 02:15:02;;;;;;;14.88;7.68;;;11.90;68.00;;;;;;5020334;28;20116;-79
2021/06/13 02:17:27;;;;;;;14.30;7.10;;;11.90;68.20;;;;;;5035787;28;20523;-79
2021/06/13 02:19:53;;;;;;;16.08;6.88;;;11.80;68.50;;;;;;5015916;28;20421;-79
2021/06/13 02:22:18;;;;;;;19.50;7.75;;;11.80;68.10;;;;;;5031705;28;20036;-79
2021/06/13 02:24:44;;;;;;;15.75;7.70;;;11.70;68.20;;;;;;4999769;28;20463;-79
2021/06/13 02:27:10;;;;;;;19.38;8.80;;;11.60;68.70;;;;;;5023607;28;20084;-79
2021/06/13 02:29:35;;;;;;;17.75;8.60;;;11.50;68.90;;;;;;5025585;28;20556;-79
2021/06/13 02:32:01;;;;;;;13.80;7.13;;;11.50;69.30;;;;;;5018936;28;20029;-80
2021/06/13 02:34:28;;;;;;;12.85;7.10;;;11.40;69.60;;;;;;4998420;28;20046;-80
2021/06/13 02:36:54;;;;;;;14.77;6.72;;;11.40;69.30;;;;;;4997573;28;20398;-80
2021/06/13 02:39:20;;;;;;;15.88;7.18;;;11.50;69.70;;;;;;5013739;28;20112;-79
2021/06/13 02:41:46;;;;;;;16.35;7.70;;;11.50;69.30;;;;;;4989585;28;20574;-79
2021/06/13 02:44:12;;;;;;;13.32;7.00;;;11.40;69.10;;;;;;5025663;28;20413;-79
2021/06/13 02:46:38;;;;;;;13.90;7.43;;;11.40;70.50;;;;;;5023826;28;20025;-79
2021/06/13 02:49:07;;;;;;;19.02;7.85;;;11.30;69.60;;;;;;5013285;28;20029;-79
2021/06/13 02:51:47;;;;;;;18.80;8.77;;;11.20;70.30;;;;;;5015732;28;20160;-79
2021/06/13 02:54:13;;;;;;;12.63;8.23;;;11.10;70.20;;;;;;5028256;28;20120;-79
2021/06/13 02:56:57;;;;;;;15.10;8.32;;;11.10;70.20;;;;;;5041924;28;20152;-79
2021/06/13 02:59:39;;;;;;;13.77;7.22;;;11.20;70.70;;;;;;5036990;28;20049;-80
2021/06/13 03:02:08;;;;;;;17.23;8.07;;;11.10;70.00;;;;;;5025027;28;20539;-79
2021/06/13 03:04:34;;;;;;;14.90;7.32;;;11.00;70.10;;;;;;5007279;28;20041;-80
2021/06/13 03:06:59;;;;;;;19.08;7.90;;;11.00;70.10;;;;;;5017898;28;20057;-79
2021/06/13 03:09:26;;;;;;;13.63;6.28;;;11.10;70.70;;;;;;5001354;28;20154;-79
2021/06/13 03:11:53;;;;;;;16.52;8.25;;;11.20;71.10;;;;;;5010634;28;20025;-79
2021/06/13 03:14:18;;;;;;;15.63;7.40;;;11.10;70.20;;;;;;5031487;28;20121;-79
2021/06/13 03:16:44;;;;;;;10.18;6.03;;;11.10;70.70;;;;;;5024951;28;20484;-79
2021/06/13 03:19:10;;;;;;;16.17;7.10;;;11.10;71.50;;;;;;5040692;28;20036;-79
2021/06/13 03:21:35;;;;;;;15.73;8.27;;;11.10;70.70;;;;;;5036515;28;20381;-79
2021/06/13 03:24:01;;;;;;;9.40;5.82;;;10.80;71.00;;;;;;5000868;28;20042;-79
2021/06/13 03:26:27;;;;;;;11.27;7.03;;;10.80;71.10;;;;;;5009508;28;20039;-78
2021/06/13 03:28:57;;;;;;;16.67;8.32;;;10.80;72.00;;;;;;5023862;28;20083;-79
2021/06/13 03:31:23;;;;;;;15.85;8.50;;;10.70;71.70;;;;;;5015855;28;20510;-79
2021/06/13 03:33:48;;;;;;;11.43;6.00;;;10.80;72.80;;;;;;5009422;28;20037;-79
2021/06/13 03:36:15;;;;;;;12.85;6.65;;;10.90;72.90;;;;;;5025999;28;20034;-79
2021/06/13 03:38:40;;;;;;;13.90;7.10;;;11.00;72.70;;;;;;5018656;28;20045;-79
2021/06/13 03:41:06;;;;;;;18.52;8.48;;;10.90;72.40;;;;;;5021001;28;20448;-79
2021/06/13 03:43:32;;;;;;;15.05;7.28;;;10.80;72.10;;;;;;5016500;28;20038;-79
2021/06/13 03:45:57;;;;;;;10.80;7.38;;;10.80;72.30;;;;;;5005210;28;20117;-80
2021/06/13 03:48:23;;;;;;;15.88;7.75;;;10.60;73.90;;;;;;5009356;28;20490;-79
2021/06/13 03:50:48;;;;;;;16.02;8.48;;;10.60;72.80;;;;;;5017312;28;20053;-80
2021/06/13 03:53:14;;;;;;;13.52;8.55;;;10.60;72.80;;;;;;5025449;28;20537;-80
2021/06/13 03:55:40;;;;;;;16.60;8.55;;;10.60;74.50;;;;;;5013173;28;20521;-79
2021/06/13 03:58:06;;;;;;;12.88;8.45;;;10.60;72.80;;;;;;5013136;28;20033;-79
2021/06/13 04:00:32;;;;;;;14.48;8.50;;;10.70;73.10;;;;;;5023786;28;20534;-79
2021/06/13 04:02:58;;;;;;;11.88;6.97;;;10.80;72.40;;;;;;5004758;28;20041;-80
2021/06/13 04:05:24;;;;;;;13.82;7.93;;;10.90;72.30;;;;;;5034364;28;20519;-79
2021/06/13 04:07:49;;;;;;;13.13;9.75;;;10.90;72.40;;;;;;5035476;28;20044;-79
2021/06/13 04:10:15;;;;;;;16.20;8.98;;;11.00;73.10;;;;;;5013820;28;20030;-80
2021/06/13 04:12:41;;;;;;;18.77;9.88;;;11.10;72.80;;;;;;5008215;28;20041;-80
2021/06/13 04:15:07;;;;;;;19.77;8.93;;;11.10;72.70;;;;;;5021680;28;20028;-79
2021/06/13 04:17:33;;;;;;;19.20;10.07;;;11.30;72.80;;;;;;5020187;28;20034;-79
2021/06/13 04:19:58;;;;;;;16.77;7.75;;;11.40;73.80;;;;;;5035939;28;20028;-80
2021/06/13 04:22:24;;;;;;;13.25;8.25;;;11.50;72.30;;;;;;5021684;28;20033;-79
2021/06/13 04:24:50;;;;;;;14.77;8.68;;;11.60;72.40;;;;;;5036747;28;20029;-79
2021/06/13 04:27:20;;;;;;;13.85;7.93;;;11.80;72.80;;;;;;5023271;28;20570;-79
2021/06/13 04:29:46;;;;;;;16.05;8.32;;;12.00;72.40;;;;;;5022870;28;20481;-79
2021/06/13 04:32:12;;;;;;;14.25;7.40;;;12.20;73.40;;;;;;5038634;28;20036;-79
2021/06/13 04:34:37;;;;;;;12.52;8.05;;;12.40;73.10;;;;;;5001792;28;20179;-79
2021/06/13 04:37:03;;;;;;;14.18;7.90;;;12.50;73.80;;;;;;5017916;28;20059;-80
2021/06/13 04:39:29;;;;;;;15.35;7.40;;;12.70;75.10;;;;;;5040811;28;20508;-79
2021/06/13 04:41:55;;;;;;;13.75;6.82;;;12.90;74.80;;;;;;5020692;28;20423;-79
2021/06/13 04:44:20;;;;;;;12.25;7.68;;;13.10;75.00;;;;;;5036246;28;20074;-79
2021/06/13 04:46:46;;;;;;;14.27;6.88;;;13.30;74.50;;;;;;5036574;28;20041;-79
2021/06/13 04:49:11;;;;;;;13.35;7.65;;;13.50;74.50;;;;;;5038153;28;20033;-79
2021/06/13 04:51:37;;;;;;;17.73;7.65;;;13.70;75.50;;;;;;5040464;28;20033;-79
2021/06/13 04:54:47;;;;;;;14.48;7.07;;;13.90;75.00;;;;;;5023040;28;20392;-79
2021/06/13 04:57:22;;;;;;;16.42;7.43;;;14.20;76.10;;;;;;5038827;28;20049;-80
2021/06/13 04:59:47;;;;;;;14.77;6.97;;;14.50;76.90;;;;;;5005478;28;20029;-79
2021/06/13 05:02:14;;;;;;;16.35;7.25;;;14.70;76.40;;;;;;5027739;28;20272;-79
2021/06/13 05:04:39;;;;;;;17.23;7.53;;;15.00;77.50;;;;;;5022350;28;20052;-80
2021/06/13 05:07:05;;;;;;;16.23;7.32;;;15.20;77.50;;;;;;5039946;28;20013;-79
2021/06/13 05:09:31;;;;;;;16.83;7.13;;;15.50;77.10;;;;;;5021083;28;20044;-80
2021/06/13 05:11:57;;;;;;;14.63;6.20;;;15.70;77.20;;;;;;5036702;28;20371;-79
2021/06/13 05:14:22;;;;;;;17.65;5.90;;;16.00;76.30;;;;;;5035995;28;20052;-79
2021/06/13 05:16:48;;;;;;;18.50;6.55;;;16.20;75.80;;;;;;5010165;28;20037;-79
2021/06/13 05:19:13;;;;;;;13.27;5.70;;;16.40;75.20;;;;;;5027202;28;20021;-79
2021/06/13 05:21:39;;;;;;;16.30;5.82;;;16.70;75.40;;;;;;5037823;28;20037;-80
2021/06/13 05:24:06;;;;;;;12.23;5.53;;;16.90;73.70;;;;;;5037222;28;20037;-79
2021/06/13 05:26:31;;;;;;;19.70;7.10;;;17.10;73.70;;;;;;5027692;28;20062;-79
2021/06/13 05:28:57;;;;;;;14.82;5.80;;;17.40;73.30;;;;;;5001480;28;20041;-79
2021/06/13 05:31:23;;;;;;;11.13;5.38;;;17.60;72.10;;;;;;5033063;28;20116;-80
2021/06/13 05:33:48;;;;;;;14.05;6.28;;;17.80;70.40;;;;;;5020541;28;20037;-79
2021/06/13 05:36:14;;;;;;;10.02;4.70;;;18.10;71.00;;;;;;5025527;28;20029;-79
2021/06/13 05:38:41;;;;;;;11.10;4.43;;;18.30;69.00;;;;;;5021422;28;20115;-79
2021/06/13 05:41:07;;;;;;;12.20;4.90;;;18.50;68.20;;;;;;5034697;28;20036;-79
2021/06/13 05:43:33;;;;;;;13.75;5.18;;;18.70;65.40;;;;;;5024418;28;20033;-79
2021/06/13 05:46:01;;;;;;;8.95;4.50;;;18.90;66.20;;;;;;5020582;28;20400;-79
2021/06/13 05:48:27;;;;;;;10.73;4.30;;;19.10;65.20;;;;;;5027109;28;20045;-80
2021/06/13 05:50:52;;;;;;;14.15;4.70;;;19.30;64.70;;;;;;5023005;28;20038;-79
2021/06/13 05:53:18;;;;;;;11.85;4.50;;;19.50;64.50;;;;;;5023599;28;20030;-79
2021/06/13 05:55:43;;;;;;;11.02;4.40;;;19.70;63.80;;;;;;5036746;28;20041;-80
2021/06/13 05:58:09;;;;;;;12.38;4.63;;;19.80;62.40;;;;;;5013945;28;20049;-80
2021/06/13 06:00:35;;;;;;;9.88;4.18;;;19.90;62.20;;;;;;5031872;28;20083;-79
2021/06/13 06:03:01;;;;;;;11.57;4.60;;;20.20;62.60;;;;;;5019945;28;20512;-79
2021/06/13 06:05:27;;;;;;;13.18;4.10;;;20.40;61.30;;;;;;4998507;28;20022;-79
2021/06/13 06:07:53;;;;;;;13.35;5.13;;;20.60;61.20;;;;;;5020499;28;20041;-79
2021/06/13 06:10:18;;;;;;;10.60;4.65;;;20.80;60.00;;;;;;5019846;28;20025;-82
2021/06/13 06:12:44;;;;;;;10.48;4.70;;;21.00;59.60;;;;;;5019789;28;20040;-79
2021/06/13 06:15:12;;;;;;;14.98;4.18;;;21.10;58.90;;;;;;5019364;28;20037;-79
2021/06/13 06:17:37;;;;;;;11.63;5.18;;;21.30;58.80;;;;;;5006697;28;20030;-80
2021/06/13 06:20:04;;;;;;;11.10;4.30;;;21.50;57.90;;;;;;5003129;28;20041;-80
2021/06/13 06:22:29;;;;;;;13.25;4.55;;;21.70;57.20;;;;;;5016437;28;20521;-80
2021/06/13 06:24:55;;;;;;;7.57;3.88;;;21.90;56.10;;;;;;5026588;28;20025;-80
2021/06/13 06:27:20;;;;;;;10.35;4.07;;;22.10;55.20;;;;;;5036541;28;20033;-81
2021/06/13 06:29:46;;;;;;;7.18;4.03;;;22.20;55.10;;;;;;5025197;28;20167;-80
2021/06/13 06:32:12;;;;;;;13.23;3.80;;;22.30;54.70;;;;;;5026295;28;20033;-81
2021/06/13 06:34:37;;;;;;;8.55;3.55;;;22.50;54.10;;;;;;5021644;28;20468;-81
2021/06/13 06:37:03;;;;;;;7.75;3.35;;;22.80;53.40;;;;;;5037382;28;20033;-81
2021/06/13 06:39:29;;;;;;;8.73;3.30;;;22.70;52.80;;;;;;5021523;28;20029;-82
2021/06/13 06:41:54;;;;;;;13.75;3.85;;;22.90;51.00;;;;;;5019782;28;20496;-82
2021/06/13 06:44:20;;;;;;;11.70;3.60;;;23.10;51.40;;;;;;5028397;28;20033;-83
2021/06/13 06:46:46;;;;;;;6.93;3.67;;;23.20;51.90;;;;;;5038099;28;20672;-83
2021/06/13 06:49:11;;;;;;;6.70;3.10;;;23.40;50.50;;;;;;5038069;28;20029;-83
2021/06/13 06:51:37;;;;;;;7.03;2.78;;;23.50;50.40;;;;;;4999942;28;20060;-83
2021/06/13 06:54:03;;;;;;;7.90;3.55;;;23.60;49.10;;;;;;5007059;28;20033;-84
2021/06/13 06:56:28;;;;;;;8.85;3.22;;;23.70;49.20;;;;;;5005193;28;20045;-84
2021/06/13 06:58:54;;;;;;;8.55;3.83;;;23.80;48.50;;;;;;5011884;28;20036;-84
2021/06/13 07:01:20;;;;;;;6.43;2.75;;;23.90;48.30;;;;;;5020682;28;20485;-84
2021/06/13 07:03:46;;;;;;;10.35;3.45;;;24.00;48.20;;;;;;5002560;28;20064;-85
2021/06/13 07:06:11;;;;;;;6.40;3.38;;;24.20;47.70;;;;;;5023044;28;20489;-85
2021/06/13 07:08:37;;;;;;;7.57;3.17;;;24.40;47.70;;;;;;4998632;28;20048;-85
2021/06/13 07:11:03;;;;;;;7.20;3.55;;;24.60;47.10;;;;;;5007245;28;20025;-85
2021/06/13 07:13:29;;;;;;;5.45;3.17;;;24.80;46.40;;;;;;5016973;28;20044;-86
2021/06/13 07:15:54;;;;;;;5.97;3.15;;;25.00;46.40;;;;;;5023468;28;24172;-86
2021/06/13 07:18:20;;;;;;;5.57;3.20;;;25.10;44.50;;;;;;5028960;28;20033;-86
2021/06/13 07:20:45;;;;;;;10.38;3.53;;;25.20;44.30;;;;;;5003609;28;20406;-86
2021/06/13 07:23:11;;;;;;;7.70;2.88;;;25.30;44.10;;;;;;5018930;28;20037;-85
2021/06/13 07:25:37;;;;;;;10.88;3.40;;;25.30;43.40;;;;;;4999932;28;20045;-85
2021/06/13 07:28:04;;;;;;;7.72;3.88;;;25.60;43.30;;;;;;4993571;28;20037;-85
2021/06/13 07:30:30;;;;;;;7.85;3.08;;;25.50;42.60;;;;;;4999977;28;20120;-84
2021/06/13 07:32:56;;;;;;;6.70;3.33;;;25.50;43.30;;;;;;5022633;28;20128;-85
2021/06/13 07:35:21;;;;;;;6.80;2.33;;;25.60;44.00;;;;;;5021516;28;20502;-85
2021/06/13 07:37:47;;;;;;;5.32;3.25;;;25.60;43.10;;;;;;5006515;28;20512;-84
2021/06/13 07:40:14;;;;;;;7.35;3.08;;;26.00;42.80;;;;;;5026708;28;20037;-85
2021/06/13 07:42:40;;;;;;;7.85;3.13;;;26.10;42.70;;;;;;5000261;28;20037;-84
2021/06/13 07:45:07;;;;;;;6.53;2.90;;;26.10;43.50;;;;;;5009759;28;20058;-84
2021/06/13 07:47:32;;;;;;;5.90;3.08;;;26.20;42.40;;;;;;5008834;28;20125;-84
2021/06/13 07:49:58;;;;;;;6.47;3.10;;;26.40;41.60;;;;;;5040860;28;20038;-84
2021/06/13 07:52:25;;;;;;;7.88;3.35;;;26.50;41.50;;;;;;5020369;28;20041;-85
2021/06/13 07:54:50;;;;;;;6.65;3.20;;;26.50;40.80;;;;;;5022596;28;20033;-84
2021/06/13 07:57:16;;;;;;;6.00;3.10;;;26.70;40.60;;;;;;5041486;28;20040;-85
2021/06/13 07:59:41;;;;;;;7.70;3.40;;;26.80;39.60;;;;;;5007582;28;20363;-85
2021/06/13 08:02:07;;;;;;;5.30;2.97;;;26.90;40.60;;;;;;5002502;28;20535;-86
2021/06/13 08:04:42;;;;;;;10.15;3.08;;;27.10;39.50;;;;;;5007955;28;20033;-86
2021/06/13 08:07:08;;;;;;;5.60;3.03;;;27.00;40.00;;;;;;5025008;28;20037;-86
2021/06/13 08:09:34;;;;;;;7.75;3.05;;;26.80;41.50;;;;;;5010584;28;20051;-86
2021/06/13 08:11:59;;;;;;;8.25;3.28;;;27.00;41.00;;;;;;5024227;28;20625;-85
2021/06/13 08:14:25;;;;;;;6.40;2.90;;;27.20;39.90;;;;;;5029237;28;20029;-85
2021/06/13 08:16:50;;;;;;;8.82;3.15;;;27.40;39.50;;;;;;5003777;28;20077;-85
2021/06/13 08:19:16;;;;;;;5.20;2.95;;;27.50;39.80;;;;;;5039391;28;20037;-86
2021/06/13 08:21:41;;;;;;;7.30;3.22;;;27.40;40.40;;;;;;5006819;28;20033;-82
2021/06/13 08:24:09;;;;;;;4.75;2.55;;;27.70;39.70;;;;;;5022501;28;20080;-85
2021/06/13 08:26:34;;;;;;;6.43;2.90;;;27.90;39.10;;;;;;5024845;28;20026;-85
2021/06/13 08:29:02;;;;;;;5.65;2.95;;;28.10;39.00;;;;;;5006428;28;20099;-85
2021/06/13 08:31:28;;;;;;;8.10;3.00;;;28.10;39.20;;;;;;5022034;28;20030;-84
2021/06/13 08:33:54;;;;;;;6.72;3.50;;;28.20;39.00;;;;;;5020810;28;20075;-84
2021/06/13 08:36:20;;;;;;;5.97;3.03;;;28.50;38.30;;;;;;5038026;28;20123;-84
2021/06/13 08:38:45;;;;;;;7.65;3.60;;;28.70;36.70;;;;;;5020571;28;20036;-84
2021/06/13 08:41:11;;;;;;;6.57;3.05;;;28.70;36.80;;;;;;5039580;28;20033;-83
2021/06/13 08:43:37;;;;;;;5.38;2.70;;;28.90;35.60;;;;;;5026335;28;20041;-84
2021/06/13 08:46:03;;;;;;;7.35;3.17;;;28.90;35.10;;;;;;5038176;28;20032;-82
2021/06/13 08:48:30;;;;;;;9.27;3.33;;;28.80;35.70;;;;;;5037644;28;20041;-81
2021/06/13 08:50:56;;;;;;;7.10;3.50;;;29.00;36.00;;;;;;5019978;28;20040;-83
2021/06/13 08:53:22;;;;;;;9.15;2.70;;;29.10;35.50;;;;;;5024587;28;20120;-83
2021/06/13 08:55:48;;;;;;;6.53;2.70;;;29.10;36.10;;;;;;5021438;28;20476;-84
2021/06/13 08:58:14;;;;;;;6.97;2.95;;;29.20;35.80;;;;;;5029272;28;20033;-84
2021/06/13 09:00:41;;;;;;;5.75;2.78;;;29.50;34.80;;;;;;5022403;28;20484;-84
2021/06/13 09:03:06;;;;;;;6.28;2.65;;;29.80;34.80;;;;;;5022261;28;20040;-85
2021/06/13 09:05:32;;;;;;;5.38;2.08;;;29.90;34.10;;;;;;5041607;28;20137;-84
2021/06/13 09:07:59;;;;;;;5.88;2.72;;;29.70;36.20;;;;;;5028826;28;20056;-84
2021/06/13 09:10:29;;;;;;;5.72;2.90;;;29.60;35.90;;;;;;5035668;28;20133;-84
2021/06/13 09:13:14;;;;;;;6.18;3.20;;;30.00;34.80;;;;;;5039236;28;20128;-84
2021/06/13 09:15:50;;;;;;;7.93;3.95;;;30.20;34.60;;;;;;5022056;28;20033;-82
2021/06/13 09:18:35;;;;;;;5.00;2.75;;;30.20;34.90;;;;;;5033952;28;20036;-83
2021/06/13 09:21:01;;;;;;;5.20;2.88;;;30.30;33.90;;;;;;5036223;28;20057;-83
2021/06/13 09:23:27;;;;;;;5.90;2.92;;;30.50;32.50;;;;;;5033701;28;20037;-82
2021/06/13 09:25:58;;;;;;;4.53;3.38;;;30.60;33.10;;;;;;5035961;28;20404;-82
2021/06/13 09:28:26;;;;;;;5.13;2.90;;;30.80;33.40;;;;;;5035677;28;20395;-81
2021/06/13 09:30:52;;;;;;;5.72;3.20;;;31.00;32.40;;;;;;5018329;28;20029;-81
2021/06/13 09:33:19;;;;;;;5.72;3.05;;;31.10;30.90;;;;;;5021698;28;20125;-81
2021/06/13 09:35:46;;;;;;;8.20;3.50;;;31.10;31.70;;;;;;5032368;28;20048;-81
2021/06/13 09:38:31;;;;;;;4.63;2.92;;;31.10;31.70;;;;;;5041605;28;20036;-80
2021/06/13 09:41:10;;;;;;;3.90;2.63;;;31.00;32.20;;;;;;5029550;28;20029;-80
2021/06/13 09:43:44;;;;;;;4.68;2.83;;;30.80;33.40;;;;;;5036874;28;20072;-80
2021/06/13 09:46:12;;;;;;;4.25;2.33;;;30.90;35.10;;;;;;5038044;28;20029;-79
2021/06/13 09:48:42;;;;;;;5.20;2.60;;;31.10;34.80;;;;;;5024566;28;20029;-79
2021/06/13 09:51:18;;;;;;;3.58;2.85;;;31.60;33.60;;;;;;5039062;28;20431;-79
2021/06/13 09:53:48;;;;;;;6.13;2.90;;;31.70;34.60;;;;;;5023140;28;20125;-79
2021/06/13 09:56:20;;;;;;;5.80;2.83;;;31.70;33.00;;;;;;5039626;28;20387;-79
2021/06/13 09:58:51;;;;;;;6.75;3.05;;;31.60;33.40;;;;;;5038385;28;20107;-79
2021/06/13 10:01:17;;;;;;;7.00;3.20;;;31.70;32.60;;;;;;5038346;28;20112;-79
2021/06/13 10:03:46;;;;;;;6.85;3.05;;;31.90;32.90;;;;;;5037957;28;20041;-78
2021/06/13 10:06:12;;;;;;;5.80;2.50;;;32.00;32.10;;;;;;5036318;28;20060;-78
2021/06/13 10:08:37;;;;;;;6.55;3.10;;;32.30;31.80;;;;;;5026980;28;20061;-78
2021/06/13 10:11:04;;;;;;;7.70;3.03;;;32.30;31.30;;;;;;5039019;28;20029;-79
2021/06/13 10:14:11;;;;;;;3.63;2.63;;;32.50;30.70;;;;;;5034900;28;20061;-76
2021/06/13 10:16:39;;;;;;;6.13;3.63;;;32.80;32.80;;;;;;5025752;28;20036;-78
2021/06/13 10:19:14;;;;;;;4.10;2.70;;;32.70;31.10;;;;;;5026632;28;20155;-76
2021/06/13 10:21:44;;;;;;;;;;;32.80;31.50;;;;;;5038310;28;20465;-76
2021/06/13 10:24:17;;;;;;;6.82;3.28;;;32.90;31.10;;;;;;5019957;28;19913;-76
2021/06/13 10:26:47;;;;;;;7.13;3.83;;;33.10;30.20;;;;;;5041914;28;20037;-76
2021/06/13 10:29:14;;;;;;;7.15;3.25;;;33.30;29.50;;;;;;5016211;28;20033;-76
2021/06/13 10:31:40;;;;;;;7.75;3.58;;;33.30;29.10;;;;;;5034553;28;20535;-76
2021/06/13 10:34:06;;;;;;;5.90;2.72;;;33.50;28.30;;;;;;5037537;28;20037;-76
2021/06/13 10:36:33;;;;;;;5.78;3.42;;;33.40;28.60;;;;;;5027414;28;20433;-77
2021/06/13 10:38:59;;;;;;;4.53;2.92;;;33.30;29.90;;;;;;5030100;28;20052;-76
2021/06/13 10:41:24;;;;;;;5.43;3.03;;;33.30;28.80;;;;;;4999015;28;20113;-76
2021/06/13 10:43:50;;;;;;;8.18;3.85;;;33.30;28.20;;;;;;5032458;28;20037;-76
2021/06/13 10:46:19;;;;;;;6.80;3.42;;;33.30;28.90;;;;;;5019714;28;20194;-76
2021/06/13 10:48:50;;;;;;;4.68;2.83;;;33.30;29.30;;;;;;5034660;28;20033;-76
2021/06/13 10:51:37;;;;;;;5.25;2.80;;;33.40;29.00;;;;;;5036018;28;20029;-77
2021/06/13 10:54:28;;;;;;;6.70;3.03;;;33.50;28.40;;;;;;5037464;28;20449;-76
2021/06/13 10:57:00;;;;;;;7.57;3.47;;;33.50;27.70;;;;;;5032651;28;20259;-76
2021/06/13 10:59:31;;;;;;;6.82;3.13;;;33.70;27.80;;;;;;5035625;28;20453;-76
2021/06/13 11:01:58;;;;;;;7.07;3.72;;;33.50;28.30;;;;;;4999691;28;20539;-76
2021/06/13 11:04:42;;;;;;;6.43;3.10;;;33.60;28.00;;;;;;5031535;28;20060;-75
2021/06/13 11:07:07;;;;;;;8.30;3.70;;;33.80;28.50;;;;;;5032019;28;20048;-76
2021/06/13 11:09:33;;;;;;;5.72;3.15;;;33.70;27.40;;;;;;5001081;28;20037;-76
2021/06/13 11:11:58;;;;;;;7.93;3.90;;;33.60;28.30;;;;;;5018056;28;20021;-77
2021/06/13 11:14:28;;;;;;;7.28;3.20;;;33.70;27.70;;;;;;5034154;28;20029;-77
2021/06/13 11:16:55;;;;;;;7.55;3.45;;;33.60;27.70;;;;;;5026642;28;20029;-77
2021/06/13 11:19:27;;;;;;;3.55;3.08;;;33.50;28.40;;;;;;4669055;28;10000597;-77
2021/06/13 11:22:17;;;;;;;5.10;3.30;;;33.70;28.70;;;;;;5024503;28;20623;-78
2021/06/13 11:24:55;;;;;;;5.78;3.00;;;34.00;28.60;;;;;;5037627;28;20223;-77
2021/06/13 11:27:21;;;;;;;4.75;3.20;;;34.00;28.50;;;;;;5016840;28;20481;-78
2021/06/13 11:29:53;;;;;;;6.45;3.83;;;34.00;27.90;;;;;;5028227;28;20075;-78
2021/06/13 11:32:54;;;;;;;8.77;3.17;;;34.20;28.70;;;;;;5030577;28;20108;-78
2021/06/13 11:35:34;;;;;;;4.93;3.15;;;34.30;28.60;;;;;;5033053;28;20523;-78
2021/06/13 11:38:09;;;;;;;8.73;3.67;;;34.50;28.80;;;;;;5006847;28;20034;-78
2021/06/13 11:40:35;;;;;;;6.67;3.23;;;34.70;28.40;;;;;;5033955;28;20037;-78
2021/06/13 11:43:10;;;;;;;5.57;3.40;;;34.60;28.30;;;;;;5034391;28;20282;-78
2021/06/13 11:45:36;;;;;;;7.45;4.00;;;34.70;28.40;;;;;;5022993;28;20425;-78
2021/06/13 11:48:21;;;;;;;6.25;3.72;;;34.80;27.70;;;;;;5033204;28;20029;-78
2021/06/13 11:51:16;;;;;;;6.07;3.20;;;34.80;28.10;;;;;;5020880;28;20440;-78
2021/06/13 11:54:02;;;;;;;7.40;3.33;;;34.90;29.30;;;;;;4673658;28;10000634;-79
2021/06/13 11:56:36;;;;;;;9.52;3.97;;;35.40;28.50;;;;;;5037068;28;20026;-78
2021/06/13 11:59:23;;;;;;;6.57;3.90;;;35.20;27.20;;;;;;5041246;28;20025;-78
2021/06/13 12:01:59;;;;;;;7.28;3.72;;;35.20;26.60;;;;;;5033694;28;20132;-78
2021/06/13 12:04:26;;;;;;;6.70;3.33;;;35.10;26.10;;;;;;5037361;28;20086;-78
2021/06/13 12:06:52;;;;;;;6.95;3.28;;;35.00;27.10;;;;;;5041216;28;20478;-78
2021/06/13 12:09:19;;;;;;;7.30;3.63;;;35.10;26.90;;;;;;5027339;28;20121;-78
2021/06/13 12:11:55;;;;;;;7.05;3.65;;;35.10;26.50;;;;;;5032657;28;20486;-78
2021/06/13 12:14:38;;;;;;;9.30;3.92;;;35.20;26.00;;;;;;5018358;28;20030;-78
2021/06/13 12:17:10;;;;;;;5.70;3.60;;;35.10;25.70;;;;;;5035888;28;20041;-78
2021/06/13 12:19:38;;;;;;;5.60;3.53;;;35.00;26.70;;;;;;5023875;28;20034;-78
2021/06/13 12:27:43;;;;;;;9.27;3.83;;;35.10;26.40;;;;;;5030535;28;20116;-78
2021/06/13 12:30:15;;;;;;;13.32;3.85;;;35.10;26.40;;;;;;5036774;28;20029;-78
2021/06/13 12:32:42;;;;;;;5.72;4.07;;;35.20;26.80;;;;;;5030516;28;20555;-78
2021/06/13 12:35:12;;;;;;;5.68;3.28;;;35.20;27.10;;;;;;5023602;28;20029;-78
2021/06/13 12:37:39;;;;;;;5.38;3.00;;;35.40;29.00;;;;;;5004724;28;20117;-78
2021/06/13 12:40:11;;;;;;;6.07;3.22;;;35.60;27.80;;;;;;5036467;28;20025;-78
2021/06/13 12:42:37;;;;;;;6.65;3.42;;;35.70;26.70;;;;;;5037602;28;20048;-78
2021/06/13 12:45:06;;;;;;;8.57;3.40;;;35.60;27.10;;;;;;5030558;28;20032;-78
2021/06/13 12:47:31;;;;;;;5.60;3.25;;;35.60;26.40;;;;;;5012969;28;20040;-78
2021/06/13 12:49:58;;;;;;;6.00;3.38;;;35.70;26.70;;;;;;5026685;28;20025;-78
2021/06/13 12:52:23;;;;;;;8.90;3.63;;;35.80;29.30;;;;;;5017418;28;20099;-78